Time;durP1;ratioP1;P1;durP2;ratioP2;P2;SDS_P1;SDS_P2;PMS_P1;PMS_P2;Temp;Humidity;BMP_temperature;BMP_pressure;BME280_temperature;BME280_humidity;BME280_pressure;Samples;Min_cycle;Max_cycle;Signal;HPM_P1;HPM_P2
2023/01/31 00:01:32;;;;;;;3.88;2.65;;;3.60;99.90;;;;;;10102219;28;20032;-72
2023/01/31 00:06:25;;;;;;;5.30;2.65;;;3.70;99.90;;;;;;10105010;28;20406;-70
2023/01/31 00:11:19;;;;;;;5.35;2.65;;;3.60;99.90;;;;;;10105948;28;20029;-72
2023/01/31 00:16:11;;;;;;;6.97;2.95;;;3.60;99.90;;;;;;10077833;28;20037;-64
2023/01/31 00:21:14;;;;;;;5.45;3.08;;;3.60;99.90;;;;;;10072725;28;20025;-63
2023/01/31 00:26:35;;;;;;;8.13;2.40;;;3.60;99.90;;;;;;10105276;28;20061;-63
2023/01/31 00:31:28;;;;;;;5.10;2.95;;;3.60;99.90;;;;;;10113699;28;20419;-64
2023/01/31 00:36:26;;;;;;;4.97;3.03;;;3.60;99.90;;;;;;10104989;28;20035;-70
2023/01/31 00:41:18;;;;;;;7.05;3.17;;;3.60;99.90;;;;;;10114406;28;20017;-68
2023/01/31 00:46:09;;;;;;;7.68;3.28;;;3.70;99.90;;;;;;10067921;28;20057;-66
2023/01/31 00:51:00;;;;;;;9.98;4.32;;;3.60;99.90;;;;;;10113854;28;20507;-63
2023/01/31 00:55:52;;;;;;;6.32;3.45;;;3.60;99.90;;;;;;10097817;28;20052;-68
2023/01/31 01:00:43;;;;;;;5.63;3.97;;;3.60;99.90;;;;;;10101807;28;20134;-75
2023/01/31 01:05:34;;;;;;;5.47;3.60;;;3.60;99.90;;;;;;10104572;28;20059;-69
2023/01/31 01:10:24;;;;;;;5.97;3.25;;;3.60;99.90;;;;;;10084427;28;20105;-68
2023/01/31 01:15:15;;;;;;;6.30;3.63;;;3.60;99.90;;;;;;10054326;28;20045;-72
2023/01/31 01:20:07;;;;;;;6.85;2.70;;;3.50;99.90;;;;;;10077585;28;20495;-70
2023/01/31 01:24:58;;;;;;;5.05;3.47;;;3.60;99.90;;;;;;10106939;28;20190;-73
2023/01/31 01:29:48;;;;;;;6.00;3.50;;;3.60;99.90;;;;;;10095846;28;20441;-72
2023/01/31 01:34:39;;;;;;;6.85;3.88;;;3.50;99.90;;;;;;10105621;28;20143;-67
2023/01/31 01:39:30;;;;;;;8.20;3.90;;;3.40;99.90;;;;;;10085650;28;20014;-67
2023/01/31 01:44:44;;;;;;;8.20;3.25;;;3.40;99.90;;;;;;10062209;28;20043;-69
2023/01/31 01:49:36;;;;;;;8.93;3.03;;;3.40;99.90;;;;;;10086858;28;20052;-67
2023/01/31 01:54:38;;;;;;;5.28;2.63;;;3.40;99.90;;;;;;10068536;28;20041;-67
2023/01/31 01:59:36;;;;;;;4.60;2.67;;;3.40;99.90;;;;;;10084774;28;20100;-69
2023/01/31 02:04:32;;;;;;;3.25;2.42;;;3.40;99.90;;;;;;10083273;28;20040;-72
2023/01/31 02:09:31;;;;;;;;;;;3.40;99.90;;;;;;10089513;28;20323;-67
2023/01/31 02:14:22;;;;;;;5.50;2.92;;;3.20;99.90;;;;;;10072934;28;19917;-66
2023/01/31 02:19:35;;;;;;;5.50;2.88;;;3.20;99.90;;;;;;10070547;28;20039;-63
2023/01/31 02:24:47;;;;;;;5.78;2.90;;;3.20;99.90;;;;;;10061715;28;20065;-64
2023/01/31 02:30:19;;;;;;;8.93;3.78;;;3.10;99.90;;;;;;10092242;28;20021;-66
2023/01/31 02:35:21;;;;;;;8.07;3.28;;;3.10;99.90;;;;;;10065364;28;20108;-63
2023/01/31 02:40:38;;;;;;;8.30;3.45;;;3.10;99.90;;;;;;10060784;28;20018;-63
2023/01/31 02:45:34;;;;;;;6.10;3.38;;;3.00;99.90;;;;;;10059486;28;20065;-63
2023/01/31 02:50:43;;;;;;;6.65;3.53;;;3.10;99.90;;;;;;10086866;28;20053;-63
2023/01/31 03:01:11;;;;;;;7.25;3.42;;;3.00;99.90;;;;;;10108764;28;20082;-65
2023/01/31 03:06:33;;;;;;;5.32;3.13;;;2.90;99.90;;;;;;10094205;28;20082;-63
2023/01/31 03:11:38;;;;;;;6.25;3.25;;;2.90;99.90;;;;;;10075321;28;20503;-65
2023/01/31 03:22:00;;;;;;;7.93;3.58;;;2.80;99.90;;;;;;10060651;28;20080;-65
2023/01/31 03:26:56;;;;;;;8.73;3.63;;;2.70;99.90;;;;;;10068853;28;20071;-67
2023/01/31 03:31:54;;;;;;;5.50;2.90;;;2.60;99.90;;;;;;10116656;28;20471;-63
2023/01/31 03:37:10;;;;;;;8.95;3.60;;;2.60;99.90;;;;;;10070882;28;20239;-70
2023/01/31 03:42:09;;;;;;;5.60;3.25;;;2.50;99.90;;;;;;10066664;28;20211;-69
2023/01/31 03:47:05;;;;;;;5.88;3.30;;;2.50;99.90;;;;;;10073098;28;20484;-66
2023/01/31 03:52:06;;;;;;;6.32;3.60;;;2.50;99.90;;;;;;10065849;28;20053;-65
2023/01/31 03:57:26;;;;;;;7.50;4.00;;;2.40;99.90;;;;;;10070840;28;20036;-67
2023/01/31 04:02:17;;;;;;;5.70;2.80;;;2.50;99.90;;;;;;10098953;28;20110;-64
2023/01/31 04:07:08;;;;;;;6.93;3.03;;;2.40;99.90;;;;;;10098613;28;20277;-66
2023/01/31 04:12:00;;;;;;;6.40;3.00;;;2.40;99.90;;;;;;10111751;28;20133;-66
2023/01/31 04:16:51;;;;;;;7.63;3.67;;;2.40;99.90;;;;;;10073125;28;20283;-65
2023/01/31 04:21:42;;;;;;;8.07;3.22;;;2.40;99.90;;;;;;10067250;28;20560;-65
2023/01/31 04:26:32;;;;;;;8.32;4.35;;;2.40;99.90;;;;;;10109927;28;20440;-64
2023/01/31 04:31:23;;;;;;;9.07;3.55;;;2.30;99.90;;;;;;10084408;28;20116;-66
2023/01/31 04:36:14;;;;;;;6.32;3.90;;;2.30;99.90;;;;;;10076601;28;20052;-63
2023/01/31 04:41:04;;;;;;;7.70;3.85;;;2.20;99.90;;;;;;10082728;28;20064;-63
2023/01/31 04:45:55;;;;;;;7.55;3.60;;;2.30;99.90;;;;;;10064476;28;20021;-63
2023/01/31 04:50:46;;;;;;;10.55;4.20;;;2.30;99.90;;;;;;10098677;28;20053;-65
2023/01/31 04:55:36;;;;;;;8.68;3.75;;;2.30;99.90;;;;;;10110287;28;20451;-64
2023/01/31 05:00:27;;;;;;;6.93;4.00;;;2.20;99.90;;;;;;10086675;28;20022;-65
2023/01/31 05:05:18;;;;;;;9.02;3.75;;;2.20;99.90;;;;;;10095039;28;20279;-64
2023/01/31 05:10:10;;;;;;;8.23;4.22;;;2.10;99.90;;;;;;10100332;28;20017;-66
2023/01/31 05:15:00;;;;;;;8.35;3.72;;;2.10;99.90;;;;;;10104205;28;20037;-65
2023/01/31 05:19:51;;;;;;;9.18;3.97;;;2.10;99.90;;;;;;10108721;28;20031;-69
2023/01/31 05:24:42;;;;;;;8.20;3.60;;;2.00;99.90;;;;;;10093242;28;20068;-65
2023/01/31 05:29:33;;;;;;;10.55;5.03;;;2.00;99.90;;;;;;10095636;28;20025;-67
2023/01/31 05:34:25;;;;;;;8.13;3.50;;;2.00;99.90;;;;;;10103960;28;20479;-66
2023/01/31 05:39:15;;;;;;;13.75;4.88;;;2.00;99.90;;;;;;10076181;28;20030;-66
2023/01/31 05:44:06;;;;;;;9.68;3.88;;;2.00;99.90;;;;;;10062659;28;20026;-63
2023/01/31 05:48:57;;;;;;;11.38;4.53;;;2.00;99.90;;;;;;10064198;28;20079;-70
2023/01/31 05:53:48;;;;;;;8.70;3.97;;;2.00;99.90;;;;;;10071723;28;20198;-68
2023/01/31 05:58:38;;;;;;;11.00;4.55;;;2.00;99.90;;;;;;10079710;28;20029;-68
2023/01/31 06:03:29;;;;;;;6.63;3.60;;;2.00;99.90;;;;;;10099587;28;20029;-64
2023/01/31 06:08:20;;;;;;;11.02;5.22;;;1.90;99.90;;;;;;10104265;28;20025;-64
2023/01/31 06:13:10;;;;;;;9.23;4.90;;;1.90;99.90;;;;;;10080636;28;20245;-69
2023/01/31 06:18:01;;;;;;;14.48;4.93;;;1.80;99.90;;;;;;10103160;28;20074;-66
2023/01/31 06:22:52;;;;;;;8.70;4.30;;;1.80;99.90;;;;;;10095472;28;20032;-68
2023/01/31 06:27:43;;;;;;;9.60;4.35;;;1.80;99.90;;;;;;10100361;28;20024;-68
2023/01/31 06:32:33;;;;;;;9.57;4.18;;;1.70;99.90;;;;;;10094295;28;20384;-65
2023/01/31 06:37:24;;;;;;;9.80;4.25;;;1.70;99.90;;;;;;10051685;28;20029;-64
2023/01/31 06:42:15;;;;;;;10.38;4.32;;;1.80;99.90;;;;;;10100357;28;20029;-64
2023/01/31 06:47:06;;;;;;;10.25;4.65;;;1.70;99.90;;;;;;10078719;28;20375;-64
2023/01/31 06:51:56;;;;;;;14.98;4.75;;;1.80;99.90;;;;;;10073723;28;20041;-63
2023/01/31 06:56:47;;;;;;;9.05;4.38;;;1.80;99.90;;;;;;10099184;28;20028;-64
2023/01/31 07:01:38;;;;;;;11.18;4.22;;;1.70;99.90;;;;;;10105050;28;20033;-66
2023/01/31 07:06:28;;;;;;;14.27;4.43;;;1.80;99.90;;;;;;10090569;28;20078;-64
2023/01/31 07:11:19;;;;;;;12.32;5.43;;;1.80;99.90;;;;;;10081861;28;20055;-66
2023/01/31 07:16:10;;;;;;;11.65;4.20;;;1.80;99.90;;;;;;10045854;28;20207;-66
2023/01/31 07:21:00;;;;;;;10.50;4.90;;;1.90;99.90;;;;;;10060335;28;20026;-66
2023/01/31 07:25:51;;;;;;;10.50;4.38;;;1.90;99.90;;;;;;10059786;28;20109;-63
2023/01/31 07:30:42;;;;;;;10.30;4.40;;;1.90;99.90;;;;;;10081063;28;20037;-66
2023/01/31 07:35:33;;;;;;;9.48;3.83;;;1.90;99.90;;;;;;10059096;28;20377;-65
2023/01/31 07:40:23;;;;;;;7.75;3.72;;;1.80;99.90;;;;;;10068158;28;20100;-66
2023/01/31 07:45:15;;;;;;;8.68;4.75;;;1.90;99.90;;;;;;10075005;28;20107;-64
2023/01/31 07:50:06;;;;;;;11.07;4.07;;;2.00;99.90;;;;;;10073412;28;20427;-65
2023/01/31 07:54:58;;;;;;;10.20;4.18;;;1.90;99.90;;;;;;10058334;28;20082;-65
2023/01/31 07:59:49;;;;;;;7.15;3.67;;;1.90;99.90;;;;;;10087597;28;20044;-64
2023/01/31 08:04:39;;;;;;;5.50;2.92;;;2.20;99.90;;;;;;10098007;28;20020;-63
2023/01/31 08:09:30;;;;;;;8.30;2.70;;;2.10;99.90;;;;;;10102506;28;20403;-65
2023/01/31 08:14:24;;;;;;;5.18;3.50;;;2.10;99.90;;;;;;10094878;28;20044;-67
2023/01/31 08:19:14;;;;;;;7.45;3.63;;;2.00;99.90;;;;;;10048385;28;20175;-64
2023/01/31 08:24:05;;;;;;;6.90;3.38;;;1.90;99.90;;;;;;10065410;28;20152;-64
2023/01/31 08:28:56;;;;;;;6.57;3.40;;;1.90;99.90;;;;;;10109006;28;20022;-63
2023/01/31 08:33:50;;;;;;;9.75;3.60;;;1.80;99.90;;;;;;10104931;28;20036;-64
2023/01/31 08:38:41;;;;;;;6.13;3.78;;;1.80;99.90;;;;;;10103714;28;20020;-63
2023/01/31 08:43:31;;;;;;;8.30;3.75;;;1.90;99.90;;;;;;10085001;28;20025;-63
2023/01/31 08:48:22;;;;;;;8.75;3.85;;;2.00;99.90;;;;;;10091167;28;20023;-63
2023/01/31 08:53:12;;;;;;;5.85;3.78;;;2.00;99.90;;;;;;10109357;28;20045;-63
2023/01/31 08:58:06;;;;;;;6.85;3.58;;;2.00;99.90;;;;;;10075076;28;20252;-63
2023/01/31 09:02:58;;;;;;;7.55;3.60;;;2.10;99.90;;;;;;10098757;28;20458;-68
2023/01/31 09:07:49;;;;;;;11.55;4.88;;;2.20;99.90;;;;;;10112279;28;20027;-63
2023/01/31 09:12:40;;;;;;;8.77;4.32;;;2.30;99.90;;;;;;10063970;28;20449;-65
2023/01/31 09:17:30;;;;;;;11.60;4.18;;;2.30;99.90;;;;;;10063547;28;20018;-67
2023/01/31 09:22:21;;;;;;;6.97;3.20;;;2.20;99.90;;;;;;10066516;28;20116;-65
2023/01/31 09:27:12;;;;;;;5.13;3.15;;;2.20;99.90;;;;;;10077845;28;20027;-67
2023/01/31 09:32:04;;;;;;;8.90;4.00;;;2.50;99.90;;;;;;10116062;28;20033;-63
2023/01/31 09:37:14;;;;;;;8.65;3.40;;;2.60;99.90;;;;;;10097129;28;20025;-64
2023/01/31 09:42:30;;;;;;;7.40;3.78;;;2.70;99.90;;;;;;10070809;28;20032;-64
2023/01/31 09:47:33;;;;;;;9.03;3.30;;;3.00;99.90;;;;;;10111067;28;20163;-67
2023/01/31 09:52:26;;;;;;;7.70;4.13;;;3.00;99.90;;;;;;10099168;28;20137;-64
2023/01/31 09:57:26;;;;;;;8.15;3.63;;;3.00;99.90;;;;;;10072754;28;20600;-62
2023/01/31 10:02:28;;;;;;;7.55;4.05;;;2.90;99.90;;;;;;10100565;28;20479;-64
2023/01/31 10:07:27;;;;;;;9.23;3.30;;;2.90;99.90;;;;;;10092182;28;20383;-64
2023/01/31 10:12:26;;;;;;;8.95;4.30;;;3.10;99.90;;;;;;10101186;28;20037;-64
2023/01/31 10:17:27;;;;;;;7.50;4.05;;;3.30;99.90;;;;;;10105726;28;20020;-66
2023/01/31 10:22:38;;;;;;;7.90;3.90;;;3.40;99.90;;;;;;10073423;28;20036;-65
2023/01/31 10:27:49;;;;;;;7.90;3.65;;;3.70;99.90;;;;;;10046228;28;20104;-66
2023/01/31 10:32:43;;;;;;;8.80;4.43;;;4.20;99.90;;;;;;10104761;28;20656;-62
2023/01/31 10:37:42;;;;;;;11.60;5.07;;;4.10;99.90;;;;;;10070566;28;20121;-64
2023/01/31 10:42:38;;;;;;;10.07;4.55;;;4.10;99.90;;;;;;10072648;28;20028;-64
2023/01/31 10:47:35;;;;;;;10.32;3.97;;;4.30;99.90;;;;;;10094385;28;20024;-64
2023/01/31 10:53:05;;;;;;;7.10;4.47;;;4.30;99.90;;;;;;10085860;28;20132;-64
2023/01/31 10:57:57;;;;;;;9.02;4.00;;;4.50;99.90;;;;;;10099367;28;20024;-65
2023/01/31 11:02:48;;;;;;;8.80;3.88;;;4.50;99.90;;;;;;10085842;28;20025;-64
2023/01/31 11:07:38;;;;;;;6.35;3.05;;;4.50;99.90;;;;;;10099132;28;20021;-66
2023/01/31 11:12:50;;;;;;;7.45;3.28;;;4.50;99.90;;;;;;10099070;28;20127;-64
2023/01/31 11:17:43;;;;;;;6.60;3.17;;;4.70;99.90;;;;;;10081294;28;20120;-67
2023/01/31 11:22:36;;;;;;;5.93;3.17;;;5.00;99.90;;;;;;10059680;28;20112;-64
2023/01/31 11:27:41;;;;;;;7.30;3.53;;;5.30;99.90;;;;;;10085122;28;20026;-63
2023/01/31 11:32:35;;;;;;;7.80;3.70;;;5.30;99.90;;;;;;10101720;28;20029;-70
2023/01/31 11:37:28;;;;;;;10.98;4.32;;;5.50;99.90;;;;;;10041128;28;20033;-69
2023/01/31 11:42:19;;;;;;;5.50;3.03;;;5.70;99.90;;;;;;10070087;28;20083;-64
2023/01/31 11:47:12;;;;;;;5.70;2.70;;;5.90;99.90;;;;;;10084963;28;20074;-71
2023/01/31 11:52:15;;;;;;;4.68;3.83;;;6.20;99.90;;;;;;10115567;28;20056;-66
2023/01/31 11:57:15;;;;;;;6.90;3.60;;;6.20;99.90;;;;;;10107347;28;20021;-69
2023/01/31 12:02:22;;;;;;;5.40;3.45;;;6.20;99.90;;;;;;10106028;28;20036;-66
2023/01/31 12:07:22;;;;;;;7.57;3.03;;;6.20;99.90;;;;;;10105830;28;20028;-70
2023/01/31 12:12:33;;;;;;;6.28;2.72;;;6.20;99.90;;;;;;10106146;28;20037;-72
2023/01/31 12:17:27;;;;;;;8.48;3.10;;;6.20;99.90;;;;;;10093057;28;20505;-68
2023/01/31 12:22:24;;;;;;;7.88;3.55;;;6.00;99.90;;;;;;10093282;28;20508;-66
2023/01/31 12:27:21;;;;;;;6.20;2.53;;;6.00;99.90;;;;;;10105462;28;20021;-64
2023/01/31 12:32:18;;;;;;;7.03;3.45;;;6.00;99.90;;;;;;10083487;28;20025;-64
2023/01/31 12:37:23;;;;;;;9.73;3.72;;;5.80;99.90;;;;;;10065629;28;20534;-63
2023/01/31 12:42:37;;;;;;;5.13;3.08;;;5.80;99.90;;;;;;10058252;28;20112;-64
2023/01/31 12:47:45;;;;;;;6.10;2.63;;;5.90;99.90;;;;;;10078257;28;20044;-66
2023/01/31 12:52:48;;;;;;;4.85;2.67;;;6.00;99.90;;;;;;10080722;28;20434;-63
2023/01/31 12:58:19;;;;;;;8.98;2.75;;;6.00;99.90;;;;;;10070865;28;20450;-67
2023/01/31 13:03:47;;;;;;;8.15;3.90;;;6.00;99.90;;;;;;10087032;28;20503;-67
2023/01/31 13:08:39;;;;;;;4.85;2.65;;;6.20;99.90;;;;;;10104484;28;20057;-64
2023/01/31 13:13:36;;;;;;;6.15;2.92;;;6.30;99.90;;;;;;10103794;28;20487;-63
2023/01/31 13:18:32;;;;;;;5.82;2.55;;;6.30;99.90;;;;;;10103166;28;20786;-69
2023/01/31 13:23:38;;;;;;;8.73;3.03;;;6.30;99.90;;;;;;10103326;28;20032;-65
2023/01/31 13:28:32;;;;;;;;;;;6.30;99.90;;;;;;10097722;28;20052;-67
2023/01/31 13:33:33;;;;;;;5.50;2.55;;;6.30;99.90;;;;;;10103967;28;19912;-65
2023/01/31 13:38:29;;;;;;;3.58;2.20;;;6.20;99.90;;;;;;10103271;28;20108;-63
2023/01/31 13:43:20;;;;;;;3.42;2.53;;;6.20;99.90;;;;;;10093154;28;20109;-63
2023/01/31 13:48:25;;;;;;;8.48;3.38;;;6.30;99.90;;;;;;10087702;28;20116;-66
2023/01/31 13:53:48;;;;;;;4.28;2.58;;;6.40;99.90;;;;;;10102474;28;20059;-63
2023/01/31 13:58:39;;;;;;;5.20;3.30;;;6.50;99.90;;;;;;10084308;28;20252;-64
2023/01/31 14:03:30;;;;;;;4.70;2.67;;;6.60;99.90;;;;;;10100808;28;20059;-65
2023/01/31 14:08:38;;;;;;;5.97;2.50;;;6.60;99.90;;;;;;10099162;28;20032;-63
2023/01/31 14:13:31;;;;;;;5.70;2.70;;;6.50;99.90;;;;;;10096921;28;20161;-73
2023/01/31 14:18:42;;;;;;;5.28;2.22;;;6.60;99.90;;;;;;10101151;28;20106;-71
2023/01/31 14:23:46;;;;;;;5.78;2.50;;;6.60;99.90;;;;;;10092950;28;20071;-72
2023/01/31 14:28:42;;;;;;;9.88;2.33;;;6.60;99.90;;;;;;10086039;28;20025;-64
2023/01/31 14:33:33;;;;;;;3.60;2.20;;;6.60;99.90;;;;;;10100636;28;20029;-74
2023/01/31 14:39:08;;;;;;;4.50;2.40;;;6.60;99.90;;;;;;10100084;28;20036;-70
2023/01/31 14:44:17;;;;;;;7.05;2.40;;;6.50;99.90;;;;;;10084510;28;20434;-74
2023/01/31 14:49:33;;;;;;;4.72;1.80;;;6.50;99.90;;;;;;10074933;28;20056;-69
2023/01/31 14:54:30;;;;;;;8.40;3.25;;;6.50;99.90;;;;;;10100648;28;20396;-72
2023/01/31 14:59:46;;;;;;;4.38;2.95;;;6.50;99.90;;;;;;10099552;28;20459;-71
2023/01/31 15:04:38;;;;;;;8.90;4.40;;;6.60;99.90;;;;;;10094152;28;20545;-68
2023/01/31 15:09:37;;;;;;;16.23;6.20;;;6.60;99.90;;;;;;10099376;28;20041;-63
2023/01/31 15:14:44;;;;;;;10.43;4.20;;;6.60;99.90;;;;;;10099180;28;20041;-63
2023/01/31 15:19:46;;;;;;;12.93;5.53;;;6.50;99.90;;;;;;10098807;28;20105;-64
2023/01/31 15:24:40;;;;;;;7.88;3.90;;;6.60;99.90;;;;;;10100045;28;20104;-67
2023/01/31 15:29:45;;;;;;;4.90;2.55;;;6.50;99.90;;;;;;10111797;28;20075;-70
2023/01/31 15:34:45;;;;;;;8.20;3.13;;;6.50;99.90;;;;;;10098659;28;20040;-64
2023/01/31 15:39:43;;;;;;;7.03;2.78;;;6.50;99.90;;;;;;10077045;28;20261;-69
2023/01/31 15:44:33;;;;;;;6.85;3.13;;;6.40;99.90;;;;;;10069895;28;20022;-63
2023/01/31 15:49:31;;;;;;;4.78;2.58;;;6.40;99.90;;;;;;10072461;28;20115;-64
2023/01/31 15:54:22;;;;;;;4.18;2.15;;;6.40;99.90;;;;;;10059224;28;20033;-63
2023/01/31 15:59:13;;;;;;;4.88;2.35;;;6.50;99.90;;;;;;10079519;28;20025;-67
2023/01/31 16:04:05;;;;;;;3.33;1.95;;;6.60;99.90;;;;;;10098631;28;20029;-64
2023/01/31 16:08:57;;;;;;;5.57;2.20;;;6.50;99.90;;;;;;10097798;28;20021;-66
2023/01/31 16:13:48;;;;;;;4.65;2.10;;;6.50;99.90;;;;;;10098287;28;20029;-64
2023/01/31 16:18:44;;;;;;;3.92;2.35;;;6.50;99.90;;;;;;10071510;28;20025;-67
2023/01/31 16:23:36;;;;;;;4.77;2.47;;;6.50;99.90;;;;;;10097744;28;20364;-66
2023/01/31 16:28:29;;;;;;;5.03;2.35;;;6.50;99.90;;;;;;10108731;28;20107;-64
2023/01/31 16:33:22;;;;;;;4.32;2.15;;;6.50;99.90;;;;;;10106869;28;20055;-65
2023/01/31 16:38:25;;;;;;;4.70;2.28;;;6.50;99.90;;;;;;10104589;28;20025;-65
2023/01/31 16:43:27;;;;;;;4.05;2.22;;;6.40;99.90;;;;;;10095305;28;20036;-64
2023/01/31 16:48:36;;;;;;;3.47;2.70;;;6.40;99.90;;;;;;10091081;28;20032;-68
2023/01/31 16:53:32;;;;;;;7.95;2.30;;;6.40;99.90;;;;;;10025087;28;20547;-67
2023/01/31 16:58:45;;;;;;;4.85;2.15;;;6.50;99.90;;;;;;10024806;28;20029;-66
2023/01/31 17:03:35;;;;;;;5.25;2.30;;;6.40;99.90;;;;;;10024433;28;20160;-64
2023/01/31 17:08:26;;;;;;;4.80;1.92;;;6.40;99.90;;;;;;10023052;28;20173;-64
2023/01/31 17:13:23;;;;;;;2.70;2.00;;;6.40;99.90;;;;;;10003729;28;20034;-65
2023/01/31 17:18:14;;;;;;;6.03;3.38;;;6.30;99.90;;;;;;9990333;28;20022;-65
2023/01/31 17:23:05;;;;;;;5.50;2.83;;;6.30;99.90;;;;;;10023798;28;20057;-64
2023/01/31 17:27:55;;;;;;;6.15;3.42;;;6.30;99.90;;;;;;10028420;28;20498;-63
2023/01/31 17:32:47;;;;;;;4.32;2.67;;;6.30;99.90;;;;;;10028983;28;20040;-65
2023/01/31 17:37:38;;;;;;;6.93;2.97;;;6.30;99.90;;;;;;10023388;28;20443;-66
2023/01/31 17:42:28;;;;;;;5.97;2.85;;;6.40;99.90;;;;;;10021491;28;20030;-67
2023/01/31 17:47:19;;;;;;;5.68;3.30;;;6.30;99.90;;;;;;9994555;28;20404;-64
2023/01/31 17:52:10;;;;;;;8.13;4.32;;;6.30;99.90;;;;;;10087586;28;20091;-64
2023/01/31 17:57:00;;;;;;;8.68;4.20;;;6.30;99.90;;;;;;10085396;28;20142;-69
2023/01/31 18:01:51;;;;;;;6.60;2.88;;;6.30;99.90;;;;;;10101232;28;20558;-65
2023/01/31 18:06:43;;;;;;;5.50;2.80;;;6.30;99.90;;;;;;10094855;28;20053;-67
2023/01/31 18:11:33;;;;;;;5.47;2.60;;;6.30;99.90;;;;;;10061446;28;20109;-74
2023/01/31 18:16:25;;;;;;;7.82;3.13;;;6.30;99.90;;;;;;10061465;28;20095;-65
2023/01/31 18:21:18;;;;;;;8.07;3.47;;;6.30;99.90;;;;;;10075071;28;20375;-66
2023/01/31 18:26:10;;;;;;;7.88;2.92;;;6.40;99.90;;;;;;10100428;28;20557;-64
2023/01/31 18:31:09;;;;;;;3.97;2.90;;;6.30;99.90;;;;;;10094126;28;20024;-65
2023/01/31 18:36:00;;;;;;;4.35;2.42;;;6.30;99.90;;;;;;10100086;28;20087;-65
2023/01/31 18:40:51;;;;;;;5.07;2.38;;;6.40;99.90;;;;;;10100242;28;20047;-70
2023/01/31 18:45:42;;;;;;;3.58;3.28;;;6.30;99.90;;;;;;10071793;28;20029;-71
2023/01/31 18:50:32;;;;;;;4.70;3.20;;;6.30;99.90;;;;;;10106322;28;20041;-65
2023/01/31 18:55:23;;;;;;;8.38;2.80;;;6.30;99.90;;;;;;10097009;28;20029;-65
2023/01/31 19:00:14;;;;;;;5.60;2.25;;;6.30;99.90;;;;;;10093679;28;20483;-68
2023/01/31 19:05:07;;;;;;;7.68;2.50;;;6.40;99.90;;;;;;10096924;28;20041;-68
2023/01/31 19:09:58;;;;;;;4.18;2.40;;;6.40;99.90;;;;;;10092616;28;20033;-70
2023/01/31 19:14:49;;;;;;;3.55;2.00;;;6.40;99.90;;;;;;10086570;28;20499;-67
2023/01/31 19:19:40;;;;;;;5.25;1.92;;;6.40;99.90;;;;;;10084758;28;20041;-72
2023/01/31 19:24:30;;;;;;;2.50;2.00;;;6.40;99.90;;;;;;10071515;28;20396;-64
2023/01/31 19:29:21;;;;;;;4.85;1.85;;;6.40;99.90;;;;;;10065347;28;20021;-64
2023/01/31 19:34:12;;;;;;;4.65;2.22;;;6.40;99.90;;;;;;10046493;28;20033;-68
2023/01/31 19:39:05;;;;;;;7.10;2.55;;;6.50;99.90;;;;;;10091690;28;20021;-66
2023/01/31 19:43:57;;;;;;;3.92;1.95;;;6.40;99.90;;;;;;10090949;28;20092;-63
2023/01/31 19:48:48;;;;;;;3.88;2.25;;;6.40;99.90;;;;;;10072521;28;20026;-67
2023/01/31 19:53:39;;;;;;;4.35;1.85;;;6.40;99.90;;;;;;10084529;28;20037;-69
2023/01/31 19:58:30;;;;;;;3.15;1.63;;;6.50;99.90;;;;;;10089638;28;20021;-64
2023/01/31 20:03:21;;;;;;;4.85;1.75;;;6.40;99.90;;;;;;10092321;28;20021;-71
2023/01/31 20:08:12;;;;;;;4.30;2.00;;;6.40;99.90;;;;;;10078620;28;20020;-63
2023/01/31 20:13:03;;;;;;;4.18;2.00;;;6.50;99.90;;;;;;10100269;28;20550;-64
2023/01/31 20:17:54;;;;;;;4.78;1.90;;;6.50;99.90;;;;;;10090330;28;20411;-65
2023/01/31 20:22:44;;;;;;;7.22;2.50;;;6.50;99.90;;;;;;10091954;28;20036;-66
2023/01/31 20:27:35;;;;;;;6.72;1.95;;;6.50;99.90;;;;;;10064896;28;20025;-63
2023/01/31 20:32:26;;;;;;;5.13;1.73;;;6.60;99.90;;;;;;10080695;28;20076;-64
2023/01/31 20:37:17;;;;;;;7.25;2.08;;;6.60;99.90;;;;;;10077784;28;20029;-67
2023/01/31 20:42:09;;;;;;;3.20;1.88;;;6.50;99.90;;;;;;10082891;28;20474;-64
2023/01/31 20:47:00;;;;;;;3.38;2.10;;;6.50;99.90;;;;;;10078835;28;20023;-64
2023/01/31 20:51:50;;;;;;;6.43;3.20;;;6.50;99.90;;;;;;10092971;28;20053;-64
2023/01/31 20:56:41;;;;;;;9.95;5.43;;;6.50;99.90;;;;;;10096645;28;20044;-66
2023/01/31 21:01:32;;;;;;;6.13;2.25;;;6.50;99.90;;;;;;10074389;28;20499;-66
2023/01/31 21:06:22;;;;;;;6.68;2.50;;;6.50;99.90;;;;;;10094699;28;20037;-64
2023/01/31 21:11:13;;;;;;;4.35;1.90;;;6.50;99.90;;;;;;10096890;28;20173;-65
2023/01/31 21:16:06;;;;;;;3.67;2.40;;;6.40;99.90;;;;;;10094500;28;20048;-63
2023/01/31 21:20:58;;;;;;;3.78;2.00;;;6.40;99.90;;;;;;10089056;28;20090;-63
2023/01/31 21:25:48;;;;;;;4.78;2.60;;;6.40;99.90;;;;;;10087701;28;20025;-68
2023/01/31 21:30:39;;;;;;;5.63;2.25;;;6.40;99.90;;;;;;10094550;28;20029;-64
2023/01/31 21:35:30;;;;;;;6.03;2.40;;;6.40;99.90;;;;;;10092565;28;20119;-68
2023/01/31 21:40:21;;;;;;;3.65;2.55;;;6.40;99.90;;;;;;10064295;28;20032;-67
2023/01/31 21:45:12;;;;;;;4.25;2.67;;;6.40;99.90;;;;;;10087725;28;20103;-66
2023/01/31 21:50:03;;;;;;;4.95;2.22;;;6.40;99.90;;;;;;10096321;28;20041;-68
2023/01/31 21:54:53;;;;;;;5.05;2.92;;;6.30;99.90;;;;;;10093899;28;20148;-65
2023/01/31 21:59:45;;;;;;;6.30;2.55;;;6.30;99.90;;;;;;10093271;28;20029;-61
2023/01/31 22:04:36;;;;;;;4.20;2.55;;;6.20;99.90;;;;;;10078795;28;20017;-63
2023/01/31 22:09:26;;;;;;;5.82;2.88;;;6.20;99.90;;;;;;10090188;28;20491;-64
2023/01/31 22:14:17;;;;;;;5.55;3.35;;;6.30;99.90;;;;;;10090601;28;20032;-63
2023/01/31 22:19:12;;;;;;;4.25;2.53;;;6.30;99.90;;;;;;10085510;28;20025;-63
2023/01/31 22:24:06;;;;;;;5.50;3.53;;;6.30;99.90;;;;;;10083503;28;20021;-63
2023/01/31 22:28:59;;;;;;;3.30;2.10;;;6.30;99.90;;;;;;10087618;28;20264;-65
2023/01/31 22:33:50;;;;;;;4.88;2.15;;;6.30;99.90;;;;;;10078169;28;20029;-70
2023/01/31 22:38:41;;;;;;;3.95;2.17;;;6.30;99.90;;;;;;10063197;28;20024;-68
2023/01/31 22:43:38;;;;;;;3.05;2.10;;;6.30;99.90;;;;;;10097072;28;20053;-67
2023/01/31 22:48:32;;;;;;;4.13;2.05;;;6.40;99.90;;;;;;10096655;28;20120;-64
2023/01/31 22:53:27;;;;;;;4.10;2.40;;;6.40;99.90;;;;;;10087596;28;20072;-67
2023/01/31 22:58:19;;;;;;;3.75;1.75;;;6.40;99.90;;;;;;10080746;28;20550;-64
2023/01/31 23:03:09;;;;;;;5.35;1.90;;;6.50;99.90;;;;;;10098439;28;20056;-65
2023/01/31 23:08:00;;;;;;;2.95;1.38;;;6.50;99.90;;;;;;10099272;28;20029;-67
2023/01/31 23:12:51;;;;;;;3.17;1.90;;;6.50;99.90;;;;;;10098504;28;20037;-68
2023/01/31 23:17:42;;;;;;;2.65;1.42;;;6.50;99.90;;;;;;10080726;28;20510;-66
2023/01/31 23:22:33;;;;;;;3.63;1.50;;;6.50;99.90;;;;;;10098557;28;20032;-67
2023/01/31 23:27:24;;;;;;;2.28;1.15;;;6.50;99.90;;;;;;10099972;28;20030;-69
2023/01/31 23:32:14;;;;;;;1.23;0.75;;;6.40;99.90;;;;;;10108575;28;20029;-64
2023/01/31 23:37:05;;;;;;;1.48;0.70;;;6.40;99.90;;;;;;10097019;28;20646;-65
2023/01/31 23:41:56;;;;;;;1.83;1.05;;;6.40;99.90;;;;;;10104428;28;20036;-65
2023/01/31 23:46:46;;;;;;;1.70;0.70;;;6.30;99.90;;;;;;10079448;28;20030;-65
2023/01/31 23:51:37;;;;;;;0.60;0.60;;;6.30;99.90;;;;;;10116614;28;20099;-65
2023/01/31 23:56:27;;;;;;;1.02;0.60;;;6.30;99.90;;;;;;10088017;28;20037;-68
